createdAt,value
2022-10-17T00:00:57.173Z,16.53
2022-10-17T00:03:23.901Z,16.57
2022-10-17T00:05:50.567Z,16.51
2022-10-17T00:08:18.305Z,16.88
2022-10-17T00:10:45.972Z,16.82
2022-10-17T00:13:15.685Z,16.42
2022-10-17T00:15:44.914Z,16.54
2022-10-17T00:18:11.660Z,16.67
2022-10-17T00:20:38.417Z,16.41
2022-10-17T00:23:05.049Z,15.70
2022-10-17T00:25:31.886Z,16.33
2022-10-17T00:27:58.567Z,15.95
2022-10-17T00:30:25.159Z,16.22
2022-10-17T00:32:51.872Z,15.72
2022-10-17T00:35:18.667Z,16.38
2022-10-17T00:37:45.378Z,16.02
2022-10-17T00:40:12.178Z,16.52
2022-10-17T00:42:38.824Z,16.58
2022-10-17T00:45:11.687Z,16.69
2022-10-17T00:47:38.763Z,16.41
2022-10-17T00:50:07.184Z,15.80
2022-10-17T00:52:35.364Z,15.86
2022-10-17T00:55:13.951Z,16.66
2022-10-17T00:57:41.535Z,16.50
2022-10-17T01:00:10.150Z,15.77
2022-10-17T01:02:37.230Z,15.98
2022-10-17T01:05:04.357Z,15.53
2022-10-17T01:07:34.709Z,15.91
2022-10-17T01:10:07.057Z,15.45
2022-10-17T01:13:15.268Z,16.29
2022-10-17T01:16:03.612Z,16.62
2022-10-17T01:18:48.902Z,16.39
2022-10-17T01:21:31.756Z,16.39
2022-10-17T01:24:41.651Z,16.24
2022-10-17T01:27:30.321Z,16.59
2022-10-17T01:31:11.318Z,16.04
2022-10-17T01:34:12.763Z,16.48
2022-10-17T01:37:19.434Z,15.87
2022-10-17T01:40:00.440Z,16.52
2022-10-17T01:42:35.996Z,15.42
2022-10-17T01:45:23.244Z,16.30
2022-10-17T01:47:53.641Z,15.63
2022-10-17T01:50:28.197Z,16.14
2022-10-17T01:53:19.746Z,16.22
2022-10-17T01:55:49.938Z,15.64
2022-10-17T01:58:24.992Z,16.43
2022-10-17T02:00:53.381Z,16.29
2022-10-17T02:03:25.811Z,15.63
2022-10-17T02:05:52.658Z,15.80
2022-10-17T02:08:29.732Z,16.00
2022-10-17T02:11:02.417Z,16.37
2022-10-17T02:13:38.117Z,16.35
2022-10-17T02:16:31.222Z,15.21
2022-10-17T02:19:20.973Z,15.85
2022-10-17T02:21:53.381Z,16.32
2022-10-17T02:24:35.067Z,15.98
2022-10-17T02:27:29.231Z,16.30
2022-10-17T02:30:05.772Z,15.83
2022-10-17T02:32:55.725Z,15.80
2022-10-17T02:35:25.403Z,16.28
2022-10-17T02:37:53.539Z,15.48
2022-10-17T02:40:23.966Z,15.62
2022-10-17T02:42:52.592Z,16.02
2022-10-17T02:45:19.706Z,16.13
2022-10-17T02:47:54.100Z,16.26
2022-10-17T02:53:01.268Z,15.55
2022-10-17T02:55:35.252Z,15.99
2022-10-17T02:58:08.863Z,15.68
2022-10-17T03:00:35.590Z,16.10
2022-10-17T03:03:17.921Z,16.18
2022-10-17T03:05:47.027Z,16.16
2022-10-17T03:08:13.683Z,16.02
2022-10-17T03:10:40.334Z,15.78
2022-10-17T03:13:06.918Z,16.10
2022-10-17T03:15:33.479Z,16.20
2022-10-17T03:18:00.139Z,16.00
2022-10-17T03:20:26.981Z,16.15
2022-10-17T03:22:53.648Z,16.16
2022-10-17T03:25:20.518Z,16.15
2022-10-17T03:27:47.274Z,16.47
2022-10-17T03:30:13.883Z,15.95
2022-10-17T03:32:40.498Z,16.08
2022-10-17T03:35:08.408Z,15.95
2022-10-17T03:37:37.901Z,15.80
2022-10-17T03:40:04.872Z,16.02
2022-10-17T03:42:32.275Z,15.72
2022-10-17T03:44:58.822Z,16.17
2022-10-17T03:47:25.493Z,15.89
2022-10-17T03:49:53.694Z,15.89
2022-10-17T03:52:20.340Z,16.03
2022-10-17T03:54:46.936Z,16.06
2022-10-17T03:57:13.553Z,16.34
2022-10-17T03:59:40.131Z,16.06
2022-10-17T04:02:06.707Z,16.59
2022-10-17T04:04:33.314Z,15.97
2022-10-17T04:06:59.941Z,16.09
2022-10-17T04:09:26.725Z,15.69
2022-10-17T04:11:53.594Z,15.89
2022-10-17T04:14:20.633Z,15.72
2022-10-17T04:16:47.309Z,15.83
2022-10-17T04:19:14.295Z,16.63
2022-10-17T04:21:40.867Z,15.98
2022-10-17T04:24:10.910Z,16.40
2022-10-17T04:26:37.723Z,16.13
2022-10-17T04:29:04.427Z,15.53
2022-10-17T04:31:31.038Z,15.98
2022-10-17T04:33:57.651Z,15.47
2022-10-17T04:36:24.279Z,15.64
2022-10-17T04:38:50.955Z,16.33
2022-10-17T04:41:18.888Z,16.22
2022-10-17T04:43:48.629Z,16.00
2022-10-17T04:46:17.775Z,16.50
2022-10-17T04:48:45.224Z,16.35
2022-10-17T04:51:14.836Z,15.46
2022-10-17T04:53:47.799Z,16.27
2022-10-17T04:56:21.281Z,15.57
2022-10-17T04:58:48.478Z,16.22
2022-10-17T05:01:17.959Z,16.28
2022-10-17T05:03:52.160Z,16.56
2022-10-17T05:06:21.587Z,16.25
2022-10-17T05:08:50.485Z,16.58
2022-10-17T05:11:25.661Z,16.62
2022-10-17T05:14:10.879Z,16.25
2022-10-17T05:16:37.526Z,15.69
2022-10-17T05:19:04.105Z,16.45
2022-10-17T05:21:30.771Z,16.15
2022-10-17T05:23:57.775Z,16.67
2022-10-17T05:26:24.475Z,16.30
2022-10-17T05:29:09.424Z,16.47
2022-10-17T05:31:36.263Z,16.69
2022-10-17T05:34:04.202Z,15.95
2022-10-17T05:36:31.082Z,15.67
2022-10-17T05:38:58.254Z,16.46
2022-10-17T05:41:25.013Z,15.62
2022-10-17T05:43:51.724Z,15.97
2022-10-17T05:46:29.170Z,15.94
2022-10-17T05:48:56.232Z,16.14
2022-10-17T05:51:22.843Z,16.25
2022-10-17T05:53:49.424Z,16.45
2022-10-17T05:56:16.114Z,15.78
2022-10-17T05:58:55.190Z,15.71
2022-10-17T06:01:24.658Z,16.22
2022-10-17T06:03:57.957Z,16.47
2022-10-17T06:06:24.869Z,16.40
2022-10-17T06:08:58.675Z,16.65
2022-10-17T06:11:25.540Z,15.60
2022-10-17T06:13:58.450Z,15.73
2022-10-17T06:16:25.289Z,16.58
2022-10-17T06:18:52.108Z,15.69
2022-10-17T06:21:28.802Z,16.04
2022-10-17T06:23:55.319Z,16.39
2022-10-17T06:26:21.983Z,16.15
2022-10-17T06:28:48.715Z,15.65
2022-10-17T06:31:17.836Z,16.05
2022-10-17T06:33:49.724Z,15.81
2022-10-17T06:36:29.075Z,15.98
2022-10-17T06:38:55.582Z,16.35
2022-10-17T06:41:22.139Z,16.52
2022-10-17T06:44:13.305Z,16.65
2022-10-17T06:46:40.502Z,16.43
2022-10-17T06:49:07.551Z,16.57
2022-10-17T06:51:37.922Z,16.68
2022-10-17T06:54:04.956Z,16.67
2022-10-17T06:56:31.684Z,16.80
2022-10-17T06:59:00.646Z,16.52
2022-10-17T07:01:34.381Z,16.91
2022-10-17T07:04:01.279Z,16.18
2022-10-17T07:06:31.154Z,16.91
2022-10-17T07:08:58.359Z,16.52
2022-10-17T07:11:29.990Z,16.70
2022-10-17T07:13:56.513Z,16.76
2022-10-17T07:16:23.149Z,16.90
2022-10-17T07:18:54.545Z,17.13
2022-10-17T07:21:21.069Z,17.13
2022-10-17T07:23:47.644Z,17.22
2022-10-17T07:26:16.587Z,17.68
2022-10-17T07:28:47.250Z,17.54
2022-10-17T07:31:17.216Z,17.73
2022-10-17T07:33:47.856Z,17.76
2022-10-17T07:36:15.452Z,17.78
2022-10-17T07:38:42.618Z,17.65
2022-10-17T07:41:11.655Z,17.20
2022-10-17T07:43:42.876Z,17.40
2022-10-17T07:46:11.133Z,17.43
2022-10-17T07:48:40.788Z,17.83
2022-10-17T07:51:09.739Z,17.67
2022-10-17T07:53:42.652Z,17.39
2022-10-17T07:56:41.850Z,17.24
2022-10-17T07:59:10.903Z,17.12
2022-10-17T08:01:37.934Z,16.87
2022-10-17T08:04:17.802Z,16.92
2022-10-17T08:11:23.417Z,16.75
2022-10-17T08:19:34.624Z,17.40
2022-10-17T08:24:53.797Z,17.54
2022-10-17T08:30:09.322Z,17.61
2022-10-17T08:32:41.247Z,16.98
2022-10-17T08:35:21.173Z,17.53
2022-10-17T08:38:20.963Z,17.34
2022-10-17T08:41:22.861Z,18.08
2022-10-17T08:44:58.081Z,18.40
2022-10-17T11:31:12.884Z,20.69
2022-10-17T11:34:11.149Z,20.47
2022-10-17T11:36:44.141Z,19.86
2022-10-17T11:39:31.010Z,19.69
2022-10-17T11:42:18.711Z,20.16
2022-10-17T11:48:09.825Z,20.20
2022-10-17T11:54:00.041Z,20.50
2022-10-17T11:56:59.435Z,20.23
2022-10-17T12:00:22.497Z,20.83
2022-10-17T12:20:04.602Z,19.91
2022-10-17T12:23:39.616Z,20.40
2022-10-17T17:14:06.775Z,18.23
2022-10-17T17:16:39.598Z,18.65
2022-10-17T17:19:08.896Z,19.36
2022-10-17T17:21:57.453Z,18.84
2022-10-17T17:27:53.470Z,18.81
2022-10-17T17:34:11.072Z,19.06
2022-10-17T17:36:40.179Z,18.75
2022-10-17T17:39:10.781Z,18.84
2022-10-17T17:41:37.897Z,18.53
2022-10-17T17:44:05.306Z,17.94
2022-10-17T17:46:33.314Z,18.84
2022-10-17T17:49:00.193Z,18.14
2022-10-17T17:51:29.483Z,18.61
2022-10-17T17:53:56.964Z,18.68
2022-10-17T17:56:25.868Z,18.47
2022-10-17T17:59:00.326Z,18.61
2022-10-17T18:01:29.580Z,18.86
2022-10-17T18:04:11.948Z,18.37
2022-10-17T18:06:39.647Z,18.61
2022-10-17T18:09:07.373Z,18.11
2022-10-17T18:11:36.614Z,18.82
2022-10-17T18:14:06.759Z,18.52
2022-10-17T18:16:35.285Z,18.83
2022-10-17T18:19:07.300Z,18.82
2022-10-17T18:21:44.524Z,17.78
2022-10-17T18:24:21.229Z,18.34
2022-10-17T18:26:48.909Z,18.51
2022-10-17T18:29:17.164Z,18.24
2022-10-17T18:31:48.744Z,18.16
2022-10-17T18:34:18.645Z,18.11
2022-10-17T18:36:52.771Z,18.78
2022-10-17T18:39:19.582Z,18.71
2022-10-17T18:41:46.802Z,18.06
2022-10-17T18:44:15.619Z,17.91
2022-10-17T18:46:42.765Z,17.92
2022-10-17T18:49:11.539Z,18.06
2022-10-17T18:51:38.819Z,18.69
2022-10-17T18:54:07.900Z,18.00
2022-10-17T18:56:34.847Z,17.70
2022-10-17T18:59:01.621Z,17.86
2022-10-17T19:01:28.456Z,18.14
2022-10-17T19:03:58.157Z,18.39
2022-10-17T19:06:36.073Z,18.58
2022-10-17T19:09:07.981Z,18.07
2022-10-17T19:11:37.527Z,18.03
2022-10-17T19:14:05.246Z,18.52
2022-10-17T19:16:38.547Z,18.32
2022-10-17T19:19:17.555Z,18.48
2022-10-17T19:21:44.593Z,18.06
2022-10-17T19:24:19.371Z,17.97
2022-10-17T19:26:47.136Z,17.91
2022-10-17T19:29:15.338Z,18.49
2022-10-17T19:31:42.382Z,18.15
2022-10-17T19:34:10.612Z,18.47
2022-10-17T19:36:38.065Z,17.84
2022-10-17T19:39:07.274Z,18.38
2022-10-17T19:41:40.647Z,18.32
2022-10-17T19:44:10.373Z,17.74
2022-10-17T19:46:37.166Z,17.31
2022-10-17T19:49:04.636Z,18.39
2022-10-17T19:51:31.174Z,18.25
2022-10-17T19:54:02.901Z,18.10
2022-10-17T19:56:31.538Z,17.88
2022-10-17T19:58:58.891Z,18.15
2022-10-17T20:01:29.218Z,17.95
2022-10-17T20:04:02.866Z,17.62
